« 雨のちゅら行き 関西国際空港・那覇空港 2016/1/29 fri | トップページ | 雷怖 富山空港 2016/2/9 tue »

2016/02/08

要塞 嘉手納飛行場 2016/1/30 sat

とっつあん坊やが水遊びしたと思ったら、今度は火遊びで全世界を相手に我がまましどおしです。とっつあん坊やの遊びに付き合うように、飴ちゃんは嘉手納の境内にいろいろ出店を出店して、極東一のお祭りになっております。

METAR RODN 300358Z AUTO 36004KT 10SM BKN015 OVC020 19/19 A3009 RMK AO2 RAE01DZB01E05 SLP196 P0000 T01870187

20160130_rodn_00kadena

空自那覇基地の第9航空団新編行事(予行)を見学後、嘉手納神社を参拝しました。ますます天候は悪く、雨に靄です。

20160130_rodn_01usmc

海兵隊のZが続けざまに飛び立って、普天間に帰っていきました。

20160130_rodn_02usmc

海兵隊にとって嘉手納と普天間でどんな役割になっているんでしょうか?

20160130_rodn_03we05

黒羊さん離陸 WE05

20160130_rodn_04n524

御椀を抱いた尻尾の短いP-3が帰ってきました。

20160130_rodn_05af70042

ギョギョギョ(by 魚くん)じゃなくって、ギャギャギャラクシー 

20160130_rodn_06af70042

AF70042 C-5M AMC Super Galaxy

20160130_rodn_07af70042

20160130_rodn_08af70042

意外と静か・・

METAR RODN 300458Z AUTO 01006KT 10SM BKN019 OVC025 19/19 A3007 RMK AO2 RAB09E19DZB19E35RAB35E36 BKN V OVC CIG014 RWY23

20160130_rodn_09af40155

40155 C-12F USA

20160130_rodn_10af40152

40152 C-12F USA

20160130_rodn_11af70042

あんな高いところまで伸びるタラップ

20160130_rodn_12we01

黒羊2頭目 WE01

20160130_rodn_13mc7983

QD7983 C-130J

20160130_rodn_14af64844

AF64844 RC-135V OF

20160130_rodn_15af23552

AF23552 KC-135 AMC  先行機の支援かな

20160130_rodn_16af20329

よーく見ると遠くに HHのKC

20160130_rodn_17af61663

AF61663 RC-135S OF

20160130_rodn_18af61663

私がコブラボールです。

20160130_rodn_19af61663

三連窓

20160130_rodn_20n517

海軍エプロンもズラーリ

20160130_rodn_21n517

20160130_rodn_22n517

御椀抱いて尻尾の短い無印良品が飛び立って、小生は離脱

F-22とかF-16AGRとかネイビーのライノとか、飴ちゃんの展覧会状態の嘉手納飛行場でした。大型機も普段よりたくさんで、世の中臨戦態勢。日本国だけでは、できないのですよね。

|

« 雨のちゅら行き 関西国際空港・那覇空港 2016/1/29 fri | トップページ | 雷怖 富山空港 2016/2/9 tue »

嘉手納飛行場」カテゴリの記事

コメント

コメントを書く



(ウェブ上には掲載しません)


コメントは記事投稿者が公開するまで表示されません。



トラックバック


この記事へのトラックバック一覧です: 要塞 嘉手納飛行場 2016/1/30 sat:

« 雨のちゅら行き 関西国際空港・那覇空港 2016/1/29 fri | トップページ | 雷怖 富山空港 2016/2/9 tue »